sensor_id;sensor_type;location;lat;lon;timestamp;temperature;humidity
1546;DHT22;766;51.502;9.752;2024-01-07T00:00:09;1.60;99.90
1546;DHT22;766;51.502;9.752;2024-01-07T00:02:37;1.60;99.90
1546;DHT22;766;51.502;9.752;2024-01-07T00:05:06;1.60;99.90
1546;DHT22;766;51.502;9.752;2024-01-07T00:07:34;1.60;99.90
1546;DHT22;766;51.502;9.752;2024-01-07T00:10:02;1.60;99.90
1546;DHT22;766;51.502;9.752;2024-01-07T00:12:31;1.60;99.90
1546;DHT22;766;51.502;9.752;2024-01-07T00:15:01;1.60;99.90
1546;DHT22;766;51.502;9.752;2024-01-07T00:17:29;1.60;99.90
1546;DHT22;766;51.502;9.752;2024-01-07T00:19:57;1.50;99.90
1546;DHT22;766;51.502;9.752;2024-01-07T00:22:26;1.50;99.90
1546;DHT22;766;51.502;9.752;2024-01-07T00:24:54;1.50;99.90
1546;DHT22;766;51.502;9.752;2024-01-07T00:27:22;1.50;99.90
1546;DHT22;766;51.502;9.752;2024-01-07T00:29:51;1.60;99.90
1546;DHT22;766;51.502;9.752;2024-01-07T00:32:20;1.60;99.90
1546;DHT22;766;51.502;9.752;2024-01-07T00:34:48;1.50;99.90
1546;DHT22;766;51.502;9.752;2024-01-07T00:37:21;1.50;99.90
1546;DHT22;766;51.502;9.752;2024-01-07T00:39:49;1.50;99.90
1546;DHT22;766;51.502;9.752;2024-01-07T00:42:18;1.50;99.90
1546;DHT22;766;51.502;9.752;2024-01-07T00:44:46;1.40;99.90
1546;DHT22;766;51.502;9.752;2024-01-07T00:47:14;1.50;99.90
1546;DHT22;766;51.502;9.752;2024-01-07T00:49:44;1.40;99.90
1546;DHT22;766;51.502;9.752;2024-01-07T00:52:12;1.40;99.90
1546;DHT22;766;51.502;9.752;2024-01-07T00:54:40;1.40;99.90
1546;DHT22;766;51.502;9.752;2024-01-07T00:57:10;1.30;99.90
1546;DHT22;766;51.502;9.752;2024-01-07T00:59:39;1.40;99.90
1546;DHT22;766;51.502;9.752;2024-01-07T01:02:07;1.40;99.90
1546;DHT22;766;51.502;9.752;2024-01-07T01:04:38;1.40;99.90
1546;DHT22;766;51.502;9.752;2024-01-07T01:07:08;1.30;99.90
1546;DHT22;766;51.502;9.752;2024-01-07T01:09:36;1.40;99.90
1546;DHT22;766;51.502;9.752;2024-01-07T01:12:06;1.40;99.90
1546;DHT22;766;51.502;9.752;2024-01-07T01:14:34;1.40;99.90
1546;DHT22;766;51.502;9.752;2024-01-07T01:17:02;1.40;99.90
1546;DHT22;766;51.502;9.752;2024-01-07T01:19:30;1.20;99.90
1546;DHT22;766;51.502;9.752;2024-01-07T01:21:59;1.20;99.90
1546;DHT22;766;51.502;9.752;2024-01-07T01:24:29;1.20;99.90
1546;DHT22;766;51.502;9.752;2024-01-07T01:26:57;1.30;99.90
1546;DHT22;766;51.502;9.752;2024-01-07T01:29:25;1.30;99.90
1546;DHT22;766;51.502;9.752;2024-01-07T01:31:53;1.30;99.90
1546;DHT22;766;51.502;9.752;2024-01-07T01:34:22;1.20;99.90
1546;DHT22;766;51.502;9.752;2024-01-07T01:36:50;1.20;99.90
1546;DHT22;766;51.502;9.752;2024-01-07T01:39:18;1.20;99.90
1546;DHT22;766;51.502;9.752;2024-01-07T01:41:47;1.20;99.90
1546;DHT22;766;51.502;9.752;2024-01-07T01:44:15;1.20;99.90
1546;DHT22;766;51.502;9.752;2024-01-07T01:46:45;1.20;99.90
1546;DHT22;766;51.502;9.752;2024-01-07T01:49:14;1.20;99.90
1546;DHT22;766;51.502;9.752;2024-01-07T01:51:43;1.20;99.90
1546;DHT22;766;51.502;9.752;2024-01-07T01:54:11;1.20;99.90
1546;DHT22;766;51.502;9.752;2024-01-07T01:56:40;1.20;99.90
1546;DHT22;766;51.502;9.752;2024-01-07T01:59:11;1.20;99.90
1546;DHT22;766;51.502;9.752;2024-01-07T02:01:39;1.20;99.90
1546;DHT22;766;51.502;9.752;2024-01-07T02:04:08;1.10;99.90
1546;DHT22;766;51.502;9.752;2024-01-07T02:06:37;1.10;99.90
1546;DHT22;766;51.502;9.752;2024-01-07T02:09:06;1.10;99.90
1546;DHT22;766;51.502;9.752;2024-01-07T02:11:34;1.10;99.90
1546;DHT22;766;51.502;9.752;2024-01-07T02:14:05;1.10;99.90
1546;DHT22;766;51.502;9.752;2024-01-07T02:16:35;1.10;99.90
1546;DHT22;766;51.502;9.752;2024-01-07T02:19:03;1.00;99.90
1546;DHT22;766;51.502;9.752;2024-01-07T02:21:33;1.00;99.90
1546;DHT22;766;51.502;9.752;2024-01-07T02:24:05;1.00;99.90
1546;DHT22;766;51.502;9.752;2024-01-07T02:26:33;1.00;99.90
1546;DHT22;766;51.502;9.752;2024-01-07T02:29:01;1.00;99.90
1546;DHT22;766;51.502;9.752;2024-01-07T02:31:29;1.00;99.90
1546;DHT22;766;51.502;9.752;2024-01-07T02:33:58;0.90;99.90
1546;DHT22;766;51.502;9.752;2024-01-07T02:36:26;0.90;99.90
1546;DHT22;766;51.502;9.752;2024-01-07T02:38:54;0.90;99.90
1546;DHT22;766;51.502;9.752;2024-01-07T02:41:24;0.90;99.90
1546;DHT22;766;51.502;9.752;2024-01-07T02:43:53;0.90;99.90
1546;DHT22;766;51.502;9.752;2024-01-07T02:46:24;1.00;99.90
1546;DHT22;766;51.502;9.752;2024-01-07T02:48:52;0.90;99.90
1546;DHT22;766;51.502;9.752;2024-01-07T02:51:20;0.80;99.90
1546;DHT22;766;51.502;9.752;2024-01-07T02:53:48;0.80;99.90
1546;DHT22;766;51.502;9.752;2024-01-07T02:56:17;0.80;99.90
1546;DHT22;766;51.502;9.752;2024-01-07T02:58:46;0.80;99.90
1546;DHT22;766;51.502;9.752;2024-01-07T03:01:14;0.80;99.90
1546;DHT22;766;51.502;9.752;2024-01-07T03:03:43;0.80;99.90
1546;DHT22;766;51.502;9.752;2024-01-07T03:06:11;0.80;99.90
1546;DHT22;766;51.502;9.752;2024-01-07T03:08:39;0.80;99.90
1546;DHT22;766;51.502;9.752;2024-01-07T03:11:07;0.80;99.90
1546;DHT22;766;51.502;9.752;2024-01-07T03:13:35;0.80;99.90
1546;DHT22;766;51.502;9.752;2024-01-07T03:16:06;0.70;99.90
1546;DHT22;766;51.502;9.752;2024-01-07T03:18:34;0.70;99.90
1546;DHT22;766;51.502;9.752;2024-01-07T03:21:03;0.70;99.90
1546;DHT22;766;51.502;9.752;2024-01-07T03:23:31;0.70;99.90
1546;DHT22;766;51.502;9.752;2024-01-07T03:25:59;0.70;99.90
1546;DHT22;766;51.502;9.752;2024-01-07T03:28:27;0.70;99.90
1546;DHT22;766;51.502;9.752;2024-01-07T03:30:55;0.60;99.90
1546;DHT22;766;51.502;9.752;2024-01-07T03:33:25;0.60;99.90
1546;DHT22;766;51.502;9.752;2024-01-07T03:35:53;0.50;99.90
1546;DHT22;766;51.502;9.752;2024-01-07T03:38:21;0.50;99.90
1546;DHT22;766;51.502;9.752;2024-01-07T03:40:50;0.50;99.90
1546;DHT22;766;51.502;9.752;2024-01-07T03:43:18;0.60;99.90
1546;DHT22;766;51.502;9.752;2024-01-07T03:45:46;0.70;99.90
1546;DHT22;766;51.502;9.752;2024-01-07T03:48:16;0.60;99.90
1546;DHT22;766;51.502;9.752;2024-01-07T03:50:47;0.50;99.90
1546;DHT22;766;51.502;9.752;2024-01-07T03:53:16;0.40;99.90
1546;DHT22;766;51.502;9.752;2024-01-07T03:55:44;0.40;99.90
1546;DHT22;766;51.502;9.752;2024-01-07T03:58:13;0.40;99.90
1546;DHT22;766;51.502;9.752;2024-01-07T04:00:41;0.40;99.90
1546;DHT22;766;51.502;9.752;2024-01-07T04:03:09;0.50;99.90
1546;DHT22;766;51.502;9.752;2024-01-07T04:05:37;0.50;99.90
1546;DHT22;766;51.502;9.752;2024-01-07T04:08:09;0.40;99.90
1546;DHT22;766;51.502;9.752;2024-01-07T04:10:38;0.40;99.90
1546;DHT22;766;51.502;9.752;2024-01-07T04:13:06;0.40;99.90
1546;DHT22;766;51.502;9.752;2024-01-07T04:15:34;0.40;99.90
1546;DHT22;766;51.502;9.752;2024-01-07T04:18:03;0.30;99.90
1546;DHT22;766;51.502;9.752;2024-01-07T04:20:31;0.30;99.90
1546;DHT22;766;51.502;9.752;2024-01-07T04:23:00;0.30;99.90
1546;DHT22;766;51.502;9.752;2024-01-07T04:25:29;0.30;99.90
1546;DHT22;766;51.502;9.752;2024-01-07T04:27:57;0.20;99.90
1546;DHT22;766;51.502;9.752;2024-01-07T04:30:25;0.20;99.90
1546;DHT22;766;51.502;9.752;2024-01-07T04:32:54;0.20;99.90
1546;DHT22;766;51.502;9.752;2024-01-07T04:35:22;0.10;99.90
1546;DHT22;766;51.502;9.752;2024-01-07T04:37:50;0.10;99.90
1546;DHT22;766;51.502;9.752;2024-01-07T04:40:18;0.00;99.90
1546;DHT22;766;51.502;9.752;2024-01-07T04:42:48;0.10;99.90
1546;DHT22;766;51.502;9.752;2024-01-07T04:45:16;0.10;99.90
1546;DHT22;766;51.502;9.752;2024-01-07T04:47:44;0.10;99.90
1546;DHT22;766;51.502;9.752;2024-01-07T04:50:12;0.10;99.90
1546;DHT22;766;51.502;9.752;2024-01-07T04:52:41;0.10;99.90
1546;DHT22;766;51.502;9.752;2024-01-07T04:55:10;0.10;99.90
1546;DHT22;766;51.502;9.752;2024-01-07T04:57:38;0.00;99.90
1546;DHT22;766;51.502;9.752;2024-01-07T05:00:09;0.00;99.90
1546;DHT22;766;51.502;9.752;2024-01-07T05:02:37;-0.10;99.90
1546;DHT22;766;51.502;9.752;2024-01-07T05:05:07;-0.10;99.90
1546;DHT22;766;51.502;9.752;2024-01-07T05:07:35;-0.20;99.90
1546;DHT22;766;51.502;9.752;2024-01-07T05:10:06;-0.20;99.90
1546;DHT22;766;51.502;9.752;2024-01-07T05:12:34;-0.20;99.90
1546;DHT22;766;51.502;9.752;2024-01-07T05:15:03;-0.10;99.90
1546;DHT22;766;51.502;9.752;2024-01-07T05:17:33;-0.20;99.90
1546;DHT22;766;51.502;9.752;2024-01-07T05:20:01;-0.20;99.90
1546;DHT22;766;51.502;9.752;2024-01-07T05:22:29;-0.20;99.90
1546;DHT22;766;51.502;9.752;2024-01-07T05:24:57;-0.20;99.90
1546;DHT22;766;51.502;9.752;2024-01-07T05:27:25;-0.20;99.90
1546;DHT22;766;51.502;9.752;2024-01-07T05:29:53;-0.20;99.90
1546;DHT22;766;51.502;9.752;2024-01-07T05:32:22;-0.20;99.90
1546;DHT22;766;51.502;9.752;2024-01-07T05:34:52;-0.20;99.90
1546;DHT22;766;51.502;9.752;2024-01-07T05:37:20;-0.20;99.90
1546;DHT22;766;51.502;9.752;2024-01-07T05:39:48;-0.10;99.90
1546;DHT22;766;51.502;9.752;2024-01-07T05:42:16;-0.20;99.90
1546;DHT22;766;51.502;9.752;2024-01-07T05:44:45;-0.20;99.90
1546;DHT22;766;51.502;9.752;2024-01-07T05:47:13;-0.20;99.90
1546;DHT22;766;51.502;9.752;2024-01-07T05:49:42;-0.20;99.90
1546;DHT22;766;51.502;9.752;2024-01-07T05:52:11;-0.30;99.90
1546;DHT22;766;51.502;9.752;2024-01-07T05:54:40;-0.30;99.90
1546;DHT22;766;51.502;9.752;2024-01-07T05:57:12;-0.30;99.90
1546;DHT22;766;51.502;9.752;2024-01-07T05:59:40;-0.30;99.90
1546;DHT22;766;51.502;9.752;2024-01-07T06:02:08;-0.40;99.90
1546;DHT22;766;51.502;9.752;2024-01-07T06:04:37;-0.40;99.90
1546;DHT22;766;51.502;9.752;2024-01-07T06:07:06;-0.40;99.90
1546;DHT22;766;51.502;9.752;2024-01-07T06:09:36;-0.40;99.90
1546;DHT22;766;51.502;9.752;2024-01-07T06:12:04;-0.40;99.90
1546;DHT22;766;51.502;9.752;2024-01-07T06:14:33;-0.50;99.90
1546;DHT22;766;51.502;9.752;2024-01-07T06:17:01;-0.50;99.90
1546;DHT22;766;51.502;9.752;2024-01-07T06:19:30;-0.50;99.90
1546;DHT22;766;51.502;9.752;2024-01-07T06:21:58;-0.50;99.90
1546;DHT22;766;51.502;9.752;2024-01-07T06:24:29;-0.40;99.90
1546;DHT22;766;51.502;9.752;2024-01-07T06:26:59;-0.50;99.90
1546;DHT22;766;51.502;9.752;2024-01-07T06:29:30;-0.50;99.90
1546;DHT22;766;51.502;9.752;2024-01-07T06:31:58;-0.50;99.90
1546;DHT22;766;51.502;9.752;2024-01-07T06:34:26;-0.60;99.90
1546;DHT22;766;51.502;9.752;2024-01-07T06:36:54;-0.50;99.90
1546;DHT22;766;51.502;9.752;2024-01-07T06:39:23;-0.50;99.90
1546;DHT22;766;51.502;9.752;2024-01-07T06:41:53;-0.50;99.90
1546;DHT22;766;51.502;9.752;2024-01-07T06:44:23;-0.50;99.90
1546;DHT22;766;51.502;9.752;2024-01-07T06:46:51;-0.60;99.90
1546;DHT22;766;51.502;9.752;2024-01-07T06:49:19;-0.60;99.90
1546;DHT22;766;51.502;9.752;2024-01-07T06:51:47;-0.60;99.90
1546;DHT22;766;51.502;9.752;2024-01-07T06:54:16;-0.70;99.90
1546;DHT22;766;51.502;9.752;2024-01-07T06:56:44;-0.70;99.90
1546;DHT22;766;51.502;9.752;2024-01-07T06:59:12;-0.70;99.90
1546;DHT22;766;51.502;9.752;2024-01-07T07:01:42;-0.70;99.90
1546;DHT22;766;51.502;9.752;2024-01-07T07:04:11;-0.70;99.90
1546;DHT22;766;51.502;9.752;2024-01-07T07:06:39;-0.70;99.90
1546;DHT22;766;51.502;9.752;2024-01-07T07:09:08;-0.70;99.90
1546;DHT22;766;51.502;9.752;2024-01-07T07:11:38;-0.70;99.90
1546;DHT22;766;51.502;9.752;2024-01-07T07:14:06;-0.80;99.90
1546;DHT22;766;51.502;9.752;2024-01-07T07:16:35;-0.70;99.90
1546;DHT22;766;51.502;9.752;2024-01-07T07:19:04;-0.80;99.90
1546;DHT22;766;51.502;9.752;2024-01-07T07:21:33;-0.80;99.90
1546;DHT22;766;51.502;9.752;2024-01-07T07:24:01;-0.80;99.90
1546;DHT22;766;51.502;9.752;2024-01-07T07:26:29;-0.80;99.90
1546;DHT22;766;51.502;9.752;2024-01-07T07:28:58;-0.80;99.90
1546;DHT22;766;51.502;9.752;2024-01-07T07:31:27;-0.80;99.90
1546;DHT22;766;51.502;9.752;2024-01-07T07:33:55;-0.80;99.90
1546;DHT22;766;51.502;9.752;2024-01-07T07:36:25;-0.80;99.90
1546;DHT22;766;51.502;9.752;2024-01-07T07:38:53;-0.80;99.90
1546;DHT22;766;51.502;9.752;2024-01-07T07:41:21;-0.80;99.90
1546;DHT22;766;51.502;9.752;2024-01-07T07:43:49;-0.80;99.90
1546;DHT22;766;51.502;9.752;2024-01-07T07:46:17;-0.80;99.90
1546;DHT22;766;51.502;9.752;2024-01-07T07:48:45;-0.90;99.90
1546;DHT22;766;51.502;9.752;2024-01-07T07:51:14;-0.90;99.90
1546;DHT22;766;51.502;9.752;2024-01-07T07:53:43;-0.90;99.90
1546;DHT22;766;51.502;9.752;2024-01-07T07:56:12;-0.90;99.90
1546;DHT22;766;51.502;9.752;2024-01-07T07:58:40;-0.90;99.90
1546;DHT22;766;51.502;9.752;2024-01-07T08:01:08;-0.90;99.90
1546;DHT22;766;51.502;9.752;2024-01-07T08:03:36;-0.90;99.90
1546;DHT22;766;51.502;9.752;2024-01-07T08:06:05;-1.00;99.90
1546;DHT22;766;51.502;9.752;2024-01-07T08:08:38;-1.00;99.90
1546;DHT22;766;51.502;9.752;2024-01-07T08:11:07;-0.90;99.90
1546;DHT22;766;51.502;9.752;2024-01-07T08:13:37;-1.00;99.90
1546;DHT22;766;51.502;9.752;2024-01-07T08:16:06;-1.00;99.90
1546;DHT22;766;51.502;9.752;2024-01-07T08:18:34;-1.10;99.90
1546;DHT22;766;51.502;9.752;2024-01-07T08:21:03;-1.10;99.90
1546;DHT22;766;51.502;9.752;2024-01-07T08:23:31;-1.00;99.90
1546;DHT22;766;51.502;9.752;2024-01-07T08:25:59;-1.10;99.90
1546;DHT22;766;51.502;9.752;2024-01-07T08:28:29;-1.10;99.90
1546;DHT22;766;51.502;9.752;2024-01-07T08:30:57;-1.10;99.90
1546;DHT22;766;51.502;9.752;2024-01-07T08:33:25;-1.10;99.90
1546;DHT22;766;51.502;9.752;2024-01-07T08:35:56;-1.10;99.90
1546;DHT22;766;51.502;9.752;2024-01-07T08:38:24;-1.10;99.90
1546;DHT22;766;51.502;9.752;2024-01-07T08:40:52;-1.10;99.90
1546;DHT22;766;51.502;9.752;2024-01-07T08:43:21;-1.10;99.90
1546;DHT22;766;51.502;9.752;2024-01-07T08:45:50;-1.20;99.90
1546;DHT22;766;51.502;9.752;2024-01-07T08:48:19;-1.20;99.90
1546;DHT22;766;51.502;9.752;2024-01-07T08:50:47;-1.20;99.90
1546;DHT22;766;51.502;9.752;2024-01-07T08:53:17;-1.20;99.90
1546;DHT22;766;51.502;9.752;2024-01-07T08:55:45;-1.20;99.90
1546;DHT22;766;51.502;9.752;2024-01-07T08:58:14;-1.20;99.90
1546;DHT22;766;51.502;9.752;2024-01-07T09:00:42;-1.20;99.90
1546;DHT22;766;51.502;9.752;2024-01-07T09:03:12;-1.20;99.90
1546;DHT22;766;51.502;9.752;2024-01-07T09:05:40;-1.20;99.90
1546;DHT22;766;51.502;9.752;2024-01-07T09:08:08;-1.20;99.90
1546;DHT22;766;51.502;9.752;2024-01-07T09:10:38;-1.20;99.90
1546;DHT22;766;51.502;9.752;2024-01-07T09:13:06;-1.20;99.90
1546;DHT22;766;51.502;9.752;2024-01-07T09:15:34;-1.20;99.90
1546;DHT22;766;51.502;9.752;2024-01-07T09:18:03;-1.20;99.90
1546;DHT22;766;51.502;9.752;2024-01-07T09:20:33;-1.30;99.90
1546;DHT22;766;51.502;9.752;2024-01-07T09:23:01;-1.40;99.90
1546;DHT22;766;51.502;9.752;2024-01-07T09:25:30;-1.30;99.90
1546;DHT22;766;51.502;9.752;2024-01-07T09:27:58;-1.30;99.90
1546;DHT22;766;51.502;9.752;2024-01-07T09:30:26;-1.30;99.90
1546;DHT22;766;51.502;9.752;2024-01-07T09:33:00;-1.40;99.90
1546;DHT22;766;51.502;9.752;2024-01-07T09:35:29;-1.50;99.90
1546;DHT22;766;51.502;9.752;2024-01-07T09:37:58;-1.50;99.90
1546;DHT22;766;51.502;9.752;2024-01-07T09:40:26;-1.50;99.90
1546;DHT22;766;51.502;9.752;2024-01-07T09:42:58;-1.50;99.90
1546;DHT22;766;51.502;9.752;2024-01-07T09:45:26;-1.50;99.90
1546;DHT22;766;51.502;9.752;2024-01-07T09:47:56;-1.50;99.90
1546;DHT22;766;51.502;9.752;2024-01-07T09:50:26;-1.50;99.90
1546;DHT22;766;51.502;9.752;2024-01-07T09:52:58;-1.50;99.90
1546;DHT22;766;51.502;9.752;2024-01-07T09:55:33;-1.40;99.90
1546;DHT22;766;51.502;9.752;2024-01-07T09:58:03;-1.50;99.90
1546;DHT22;766;51.502;9.752;2024-01-07T10:00:32;-1.60;99.90
1546;DHT22;766;51.502;9.752;2024-01-07T10:03:01;-1.50;99.90
1546;DHT22;766;51.502;9.752;2024-01-07T10:05:29;-1.60;99.90
1546;DHT22;766;51.502;9.752;2024-01-07T10:08:00;-1.60;99.90
1546;DHT22;766;51.502;9.752;2024-01-07T10:10:29;-1.60;99.90
1546;DHT22;766;51.502;9.752;2024-01-07T10:12:57;-1.60;99.90
1546;DHT22;766;51.502;9.752;2024-01-07T10:15:25;-1.60;99.90
1546;DHT22;766;51.502;9.752;2024-01-07T10:17:55;-1.60;99.90
1546;DHT22;766;51.502;9.752;2024-01-07T10:20:23;-1.70;99.90
1546;DHT22;766;51.502;9.752;2024-01-07T10:22:52;-1.60;99.90
1546;DHT22;766;51.502;9.752;2024-01-07T10:25:21;-1.60;99.90
1546;DHT22;766;51.502;9.752;2024-01-07T10:27:50;-1.50;99.90
1546;DHT22;766;51.502;9.752;2024-01-07T10:30:19;-1.50;99.90
1546;DHT22;766;51.502;9.752;2024-01-07T10:32:49;-1.50;99.90
1546;DHT22;766;51.502;9.752;2024-01-07T10:35:18;-1.60;99.90
1546;DHT22;766;51.502;9.752;2024-01-07T10:37:49;-1.70;99.90
1546;DHT22;766;51.502;9.752;2024-01-07T10:40:18;-1.70;99.90
1546;DHT22;766;51.502;9.752;2024-01-07T10:42:48;-2.00;99.90
1546;DHT22;766;51.502;9.752;2024-01-07T10:45:17;-2.20;99.90
1546;DHT22;766;51.502;9.752;2024-01-07T10:47:49;-2.10;99.90
1546;DHT22;766;51.502;9.752;2024-01-07T10:50:18;-2.30;99.90
1546;DHT22;766;51.502;9.752;2024-01-07T10:52:49;-2.10;99.90
1546;DHT22;766;51.502;9.752;2024-01-07T10:55:18;-2.20;99.90
1546;DHT22;766;51.502;9.752;2024-01-07T10:57:49;-2.10;99.90
1546;DHT22;766;51.502;9.752;2024-01-07T11:00:17;-2.10;99.90
1546;DHT22;766;51.502;9.752;2024-01-07T11:02:59;-2.00;99.90
1546;DHT22;766;51.502;9.752;2024-01-07T11:05:33;-2.00;99.90
1546;DHT22;766;51.502;9.752;2024-01-07T11:08:08;-1.90;99.90
1546;DHT22;766;51.502;9.752;2024-01-07T11:10:45;-1.90;99.90
1546;DHT22;766;51.502;9.752;2024-01-07T11:13:36;-2.00;99.90
1546;DHT22;766;51.502;9.752;2024-01-07T11:16:06;-2.20;99.90
1546;DHT22;766;51.502;9.752;2024-01-07T11:18:38;-2.10;99.90
1546;DHT22;766;51.502;9.752;2024-01-07T11:21:07;-2.00;99.90
1546;DHT22;766;51.502;9.752;2024-01-07T11:23:37;-2.20;99.90
1546;DHT22;766;51.502;9.752;2024-01-07T11:26:10;-2.20;99.90
1546;DHT22;766;51.502;9.752;2024-01-07T11:28:49;-2.10;99.90
1546;DHT22;766;51.502;9.752;2024-01-07T11:31:19;-2.10;99.90
1546;DHT22;766;51.502;9.752;2024-01-07T11:33:49;-2.10;99.90
1546;DHT22;766;51.502;9.752;2024-01-07T11:36:18;-2.20;99.90
1546;DHT22;766;51.502;9.752;2024-01-07T11:38:48;-2.20;99.90
1546;DHT22;766;51.502;9.752;2024-01-07T11:41:21;-2.20;99.90
1546;DHT22;766;51.502;9.752;2024-01-07T11:43:55;-2.10;99.90
1546;DHT22;766;51.502;9.752;2024-01-07T11:46:32;-1.90;99.90
1546;DHT22;766;51.502;9.752;2024-01-07T11:49:01;-2.00;99.90
1546;DHT22;766;51.502;9.752;2024-01-07T11:51:31;-2.00;99.90
1546;DHT22;766;51.502;9.752;2024-01-07T11:54:02;-2.00;99.90
1546;DHT22;766;51.502;9.752;2024-01-07T11:56:30;-2.00;99.90
1546;DHT22;766;51.502;9.752;2024-01-07T11:58:59;-1.90;99.90
1546;DHT22;766;51.502;9.752;2024-01-07T12:01:28;-2.00;99.90
1546;DHT22;766;51.502;9.752;2024-01-07T12:03:56;-2.00;99.90
1546;DHT22;766;51.502;9.752;2024-01-07T12:06:24;-2.00;99.90
1546;DHT22;766;51.502;9.752;2024-01-07T12:08:53;-2.10;99.90
1546;DHT22;766;51.502;9.752;2024-01-07T12:11:21;-2.00;99.90
1546;DHT22;766;51.502;9.752;2024-01-07T12:13:50;-1.90;99.90
1546;DHT22;766;51.502;9.752;2024-01-07T12:16:20;-2.00;99.90
1546;DHT22;766;51.502;9.752;2024-01-07T12:18:48;-2.20;99.90
1546;DHT22;766;51.502;9.752;2024-01-07T12:21:19;-2.20;99.90
1546;DHT22;766;51.502;9.752;2024-01-07T12:23:49;-2.10;99.90
1546;DHT22;766;51.502;9.752;2024-01-07T12:26:18;-2.10;99.90
1546;DHT22;766;51.502;9.752;2024-01-07T12:28:52;-2.00;99.90
1546;DHT22;766;51.502;9.752;2024-01-07T12:31:23;-1.90;99.90
1546;DHT22;766;51.502;9.752;2024-01-07T12:33:51;-1.80;99.90
1546;DHT22;766;51.502;9.752;2024-01-07T12:36:21;-1.90;99.90
1546;DHT22;766;51.502;9.752;2024-01-07T12:38:49;-1.80;99.90
1546;DHT22;766;51.502;9.752;2024-01-07T12:41:21;-1.70;99.90
1546;DHT22;766;51.502;9.752;2024-01-07T12:43:49;-1.80;99.90
1546;DHT22;766;51.502;9.752;2024-01-07T12:46:18;-1.70;99.90
1546;DHT22;766;51.502;9.752;2024-01-07T12:48:48;-1.60;99.90
1546;DHT22;766;51.502;9.752;2024-01-07T12:51:16;-1.70;99.90
1546;DHT22;766;51.502;9.752;2024-01-07T12:53:49;-1.80;99.90
1546;DHT22;766;51.502;9.752;2024-01-07T12:56:17;-1.90;99.90
1546;DHT22;766;51.502;9.752;2024-01-07T12:58:45;-1.90;99.90
1546;DHT22;766;51.502;9.752;2024-01-07T13:01:13;-1.80;99.90
1546;DHT22;766;51.502;9.752;2024-01-07T13:03:42;-1.80;99.90
1546;DHT22;766;51.502;9.752;2024-01-07T13:06:12;-1.80;99.90
1546;DHT22;766;51.502;9.752;2024-01-07T13:08:40;-1.90;99.90
1546;DHT22;766;51.502;9.752;2024-01-07T13:11:08;-2.00;99.90
1546;DHT22;766;51.502;9.752;2024-01-07T13:13:41;-1.90;99.90
1546;DHT22;766;51.502;9.752;2024-01-07T13:16:09;-1.90;99.90
1546;DHT22;766;51.502;9.752;2024-01-07T13:18:38;-1.80;99.90
1546;DHT22;766;51.502;9.752;2024-01-07T13:21:06;-1.80;99.90
1546;DHT22;766;51.502;9.752;2024-01-07T13:23:36;-1.70;99.90
1546;DHT22;766;51.502;9.752;2024-01-07T13:26:04;-1.80;99.90
1546;DHT22;766;51.502;9.752;2024-01-07T13:28:36;-1.80;99.90
1546;DHT22;766;51.502;9.752;2024-01-07T13:31:05;-1.80;99.90
1546;DHT22;766;51.502;9.752;2024-01-07T13:33:34;-1.80;99.90
1546;DHT22;766;51.502;9.752;2024-01-07T13:36:02;-1.80;99.90
1546;DHT22;766;51.502;9.752;2024-01-07T13:38:37;-1.80;99.90
1546;DHT22;766;51.502;9.752;2024-01-07T13:41:05;-1.80;99.90
1546;DHT22;766;51.502;9.752;2024-01-07T13:43:33;-1.80;99.90
1546;DHT22;766;51.502;9.752;2024-01-07T13:46:04;-1.80;99.90
1546;DHT22;766;51.502;9.752;2024-01-07T13:48:32;-1.80;99.90
1546;DHT22;766;51.502;9.752;2024-01-07T13:51:01;-1.80;99.90
1546;DHT22;766;51.502;9.752;2024-01-07T13:53:30;-1.90;99.90
1546;DHT22;766;51.502;9.752;2024-01-07T13:56:00;-1.90;99.90
1546;DHT22;766;51.502;9.752;2024-01-07T13:58:28;-1.90;99.90
1546;DHT22;766;51.502;9.752;2024-01-07T14:00:56;-1.90;99.90
1546;DHT22;766;51.502;9.752;2024-01-07T14:03:24;-1.90;99.90
1546;DHT22;766;51.502;9.752;2024-01-07T14:05:53;-1.90;99.90
1546;DHT22;766;51.502;9.752;2024-01-07T14:08:21;-2.00;99.90
1546;DHT22;766;51.502;9.752;2024-01-07T14:10:49;-2.00;99.90
1546;DHT22;766;51.502;9.752;2024-01-07T14:13:19;-2.00;99.90
1546;DHT22;766;51.502;9.752;2024-01-07T14:15:47;-1.90;99.90
1546;DHT22;766;51.502;9.752;2024-01-07T14:18:15;-1.90;99.90
1546;DHT22;766;51.502;9.752;2024-01-07T14:20:44;-1.80;99.90
1546;DHT22;766;51.502;9.752;2024-01-07T14:23:12;-1.80;99.90
1546;DHT22;766;51.502;9.752;2024-01-07T14:25:40;-1.80;99.90
1546;DHT22;766;51.502;9.752;2024-01-07T14:28:08;-1.90;99.90
1546;DHT22;766;51.502;9.752;2024-01-07T14:30:39;-1.90;99.90
1546;DHT22;766;51.502;9.752;2024-01-07T14:33:07;-1.90;99.90
1546;DHT22;766;51.502;9.752;2024-01-07T14:35:35;-1.90;99.90
1546;DHT22;766;51.502;9.752;2024-01-07T14:38:03;-1.80;99.90
1546;DHT22;766;51.502;9.752;2024-01-07T14:40:34;-1.80;99.90
1546;DHT22;766;51.502;9.752;2024-01-07T14:43:03;-1.80;99.90
1546;DHT22;766;51.502;9.752;2024-01-07T14:45:31;-1.70;99.90
1546;DHT22;766;51.502;9.752;2024-01-07T14:48:02;-1.80;99.90
1546;DHT22;766;51.502;9.752;2024-01-07T14:50:31;-1.80;99.90
1546;DHT22;766;51.502;9.752;2024-01-07T14:53:07;-1.70;99.90
1546;DHT22;766;51.502;9.752;2024-01-07T14:55:35;-1.80;99.90
1546;DHT22;766;51.502;9.752;2024-01-07T14:58:03;-1.90;99.90
1546;DHT22;766;51.502;9.752;2024-01-07T15:00:31;-1.90;99.90
1546;DHT22;766;51.502;9.752;2024-01-07T15:03:02;-1.80;99.90
1546;DHT22;766;51.502;9.752;2024-01-07T15:05:31;-1.80;99.90
1546;DHT22;766;51.502;9.752;2024-01-07T15:07:59;-1.80;99.90
1546;DHT22;766;51.502;9.752;2024-01-07T15:10:27;-1.90;99.90
1546;DHT22;766;51.502;9.752;2024-01-07T15:12:55;-1.80;99.90
1546;DHT22;766;51.502;9.752;2024-01-07T15:15:33;-1.80;99.90
1546;DHT22;766;51.502;9.752;2024-01-07T15:18:03;-1.70;99.90
1546;DHT22;766;51.502;9.752;2024-01-07T15:20:31;-1.70;99.90
1546;DHT22;766;51.502;9.752;2024-01-07T15:23:00;-1.70;99.90
1546;DHT22;766;51.502;9.752;2024-01-07T15:25:29;-1.70;99.90
1546;DHT22;766;51.502;9.752;2024-01-07T15:27:57;-1.70;99.90
1546;DHT22;766;51.502;9.752;2024-01-07T15:30:26;-1.70;99.90
1546;DHT22;766;51.502;9.752;2024-01-07T15:32:54;-1.70;99.90
1546;DHT22;766;51.502;9.752;2024-01-07T15:35:25;-1.70;99.90
1546;DHT22;766;51.502;9.752;2024-01-07T15:37:53;-1.60;99.90
1546;DHT22;766;51.502;9.752;2024-01-07T15:40:22;-1.60;99.90
1546;DHT22;766;51.502;9.752;2024-01-07T15:42:50;-1.60;99.90
1546;DHT22;766;51.502;9.752;2024-01-07T15:45:21;-1.70;99.90
1546;DHT22;766;51.502;9.752;2024-01-07T15:47:49;-1.70;99.90
1546;DHT22;766;51.502;9.752;2024-01-07T15:50:17;-1.60;99.90
1546;DHT22;766;51.502;9.752;2024-01-07T15:52:47;-1.60;99.90
1546;DHT22;766;51.502;9.752;2024-01-07T15:55:16;-1.60;99.90
1546;DHT22;766;51.502;9.752;2024-01-07T15:57:45;-1.60;99.90
1546;DHT22;766;51.502;9.752;2024-01-07T16:00:14;-1.60;99.90
1546;DHT22;766;51.502;9.752;2024-01-07T16:02:42;-1.60;99.90
1546;DHT22;766;51.502;9.752;2024-01-07T16:05:12;-1.60;99.90
1546;DHT22;766;51.502;9.752;2024-01-07T16:07:41;-1.60;99.90
1546;DHT22;766;51.502;9.752;2024-01-07T16:10:10;-1.70;99.90
1546;DHT22;766;51.502;9.752;2024-01-07T16:12:39;-1.70;99.90
1546;DHT22;766;51.502;9.752;2024-01-07T16:15:09;-1.70;99.90
1546;DHT22;766;51.502;9.752;2024-01-07T16:17:38;-1.70;99.90
1546;DHT22;766;51.502;9.752;2024-01-07T16:20:10;-1.70;99.90
1546;DHT22;766;51.502;9.752;2024-01-07T16:22:39;-1.70;99.90
1546;DHT22;766;51.502;9.752;2024-01-07T16:25:09;-1.70;99.90
1546;DHT22;766;51.502;9.752;2024-01-07T16:27:38;-1.70;99.90
1546;DHT22;766;51.502;9.752;2024-01-07T16:30:07;-1.70;99.90
1546;DHT22;766;51.502;9.752;2024-01-07T16:32:35;-1.70;99.90